Airfield :
LOGIN :

Register | Disclaimer

   EN    FR    IT 

 










Legend :    VFR   Marginal VFR   IFR   Intensive IFR   Very Intensive IFR
Visi :
Ceiling :
>= 8 km
>= 3000ft
5 to 8 km
1000 to 3000 ft
1500m to 5 km
500 to 1000 ft
800 to 1500m
200 to 500 ft
< 800m
< 200 ft
Symbols :   Thunderstorms  Fog  Heavy snow  Heavy precipitations  Wind > 20 kt
SIGMETs :     Misc.  Thunderstorms  Icing  Turbulence  Mountain Waves  Volcanic Ashes






- Airport Elevation : 48 ft
- IATA code : PSR


LIBP - Abruzzo Pescara

CURRENT METAR :
  • 211420Z AUTO 04010KT 350V070 9999 NCD 15/04 Q1012

EXPIRED METARs :
  • 211350Z AUTO 03009KT 350V070 9999 SCT093/// 15/05 Q1013
  • 211320Z AUTO 03009KT 360V060 9999 OVC085/// 16/05 Q1013
  • 211250Z AUTO 02007KT 340V050 9999 FEW062/// BKN095/// 15/03 Q1013
  • 211220Z AUTO 36011KT 340V040 9999 NCD 15/06 Q1013
  • 211150Z AUTO 04008KT 010V070 9999 FEW049/// 16/07 Q1013
  • 211120Z AUTO VRB03KT 9999 FEW051/// SCT065/// 16/05 Q1013
  • 211050Z AUTO 33004KT 300V030 9999 SCT046/// 15/03 Q1013
  • 211020Z AUTO 33004KT 270V010 9999 BKN037/// 14/05 Q1013
  • 210950Z AUTO 32004KT 250V040 9999 NCD 14/06 Q1013

TAF TAF LIBP
Valid from the 21 at 12:00 until the 22 at 12:00 UTC


211100Z 2112/2212 03010KT 9999 SCT030
BECMG 2114/2116 VRB05KT
BECMG 2207/2209 11013KT



MET'MAP, your aeronautical weather chart ! - Copyright ORBIFLY December 2007 - Disclaimer

ORBIFLY MET'MAP TEAM :

Programming & Development : Alexandra Zaïnal
Original concept : Baudouin d'Aumeries
Technical & hardware support : Manuel Goepfert
Assistance : Marc-Olivier Méhu




SOURCES & CREDITS :

   NOAA